createdAt,value
2018-11-03T00:00:35.209Z,0.00
2018-11-03T00:02:28.002Z,0.00
2018-11-03T00:03:27.969Z,0.00
2018-11-03T00:05:20.768Z,0.00
2018-11-03T00:06:20.720Z,0.00
2018-11-03T00:08:13.513Z,0.00
2018-11-03T00:09:13.464Z,0.00
2018-11-03T00:11:06.278Z,0.00
2018-11-03T00:12:06.222Z,0.00
2018-11-03T00:13:59.013Z,0.00
2018-11-03T00:14:58.974Z,0.00
2018-11-03T00:16:51.784Z,0.00
2018-11-03T00:17:51.714Z,0.00
2018-11-03T00:19:44.539Z,0.00
2018-11-03T00:20:44.476Z,0.00
2018-11-03T00:22:37.284Z,0.00
2018-11-03T00:23:37.224Z,0.00
2018-11-03T00:25:30.054Z,0.00
2018-11-03T00:26:29.991Z,0.00
2018-11-03T00:28:22.800Z,0.00
2018-11-03T00:29:22.759Z,0.00
2018-11-03T00:31:15.560Z,0.00
2018-11-03T00:32:15.516Z,0.00
2018-11-03T00:34:08.298Z,0.00
2018-11-03T00:35:08.261Z,0.00
2018-11-03T00:37:01.090Z,0.00
2018-11-03T00:38:01.015Z,0.00
2018-11-03T00:39:53.845Z,0.00
2018-11-03T00:40:53.788Z,0.00
2018-11-03T00:42:46.619Z,0.00
2018-11-03T00:43:46.545Z,0.00
2018-11-03T00:45:39.345Z,0.00
2018-11-03T00:46:39.350Z,0.00
2018-11-03T00:48:32.140Z,0.00
2018-11-03T00:49:32.055Z,0.00
2018-11-03T00:51:24.867Z,0.00
2018-11-03T00:52:24.796Z,0.00
2018-11-03T00:54:17.589Z,0.00
2018-11-03T00:55:17.549Z,0.00
2018-11-03T00:57:10.364Z,0.00
2018-11-03T00:58:10.288Z,0.00
2018-11-03T01:00:03.101Z,0.00
2018-11-03T01:01:03.060Z,0.00
2018-11-03T01:02:55.871Z,0.00
2018-11-03T01:03:55.805Z,0.00
2018-11-03T01:05:48.600Z,0.00
2018-11-03T01:06:48.558Z,0.00
2018-11-03T01:08:41.362Z,0.00
2018-11-03T01:09:41.302Z,0.00
2018-11-03T01:11:34.122Z,0.00
2018-11-03T01:12:34.046Z,0.00
2018-11-03T01:14:26.854Z,0.00
2018-11-03T01:15:26.802Z,0.00
2018-11-03T01:17:19.618Z,0.00
2018-11-03T01:18:19.563Z,0.00
2018-11-03T01:20:12.353Z,0.00
2018-11-03T01:21:12.316Z,0.00
2018-11-03T01:23:05.122Z,0.00
2018-11-03T01:24:05.056Z,0.00
2018-11-03T01:25:57.850Z,0.00
2018-11-03T01:26:57.813Z,0.00
2018-11-03T01:28:51.101Z,0.00
2018-11-03T01:29:51.051Z,0.00
2018-11-03T01:31:44.336Z,0.00
2018-11-03T01:32:44.308Z,0.00
2018-11-03T01:34:37.105Z,0.00
2018-11-03T01:35:37.039Z,0.00
2018-11-03T01:37:29.860Z,0.00
2018-11-03T01:38:29.804Z,0.00
2018-11-03T01:40:22.599Z,0.00
2018-11-03T01:41:22.547Z,0.00
2018-11-03T01:43:15.867Z,0.00
2018-11-03T01:44:15.804Z,0.00
2018-11-03T01:46:08.598Z,0.00
2018-11-03T01:47:08.563Z,0.00
2018-11-03T01:49:01.376Z,0.00
2018-11-03T01:50:01.314Z,0.00
2018-11-03T01:51:54.102Z,0.00
2018-11-03T01:52:54.064Z,0.00
2018-11-03T01:54:47.376Z,0.00
2018-11-03T01:55:47.307Z,0.00
2018-11-03T01:57:40.610Z,0.00
2018-11-03T01:58:40.563Z,0.00
2018-11-03T02:00:33.878Z,0.00
2018-11-03T02:01:33.815Z,0.00
2018-11-03T02:03:26.622Z,0.00
2018-11-03T02:04:26.580Z,0.00
2018-11-03T02:06:19.883Z,0.00
2018-11-03T02:07:19.831Z,0.00
2018-11-03T02:09:12.624Z,0.00
2018-11-03T02:10:12.579Z,0.00
2018-11-03T02:12:05.388Z,0.00
2018-11-03T02:13:05.331Z,0.00
2018-11-03T02:14:58.146Z,0.00
2018-11-03T02:15:58.092Z,0.00
2018-11-03T02:17:51.399Z,0.00
2018-11-03T02:18:51.349Z,0.00
2018-11-03T02:20:44.655Z,0.00
2018-11-03T02:21:44.589Z,0.00
2018-11-03T02:23:37.890Z,0.00
2018-11-03T02:24:37.846Z,0.00
2018-11-03T02:26:31.179Z,0.00
2018-11-03T02:27:31.121Z,0.00
2018-11-03T02:29:23.906Z,0.00
2018-11-03T02:30:23.856Z,0.00
2018-11-03T02:32:16.685Z,0.00
2018-11-03T02:33:16.601Z,0.00
2018-11-03T02:35:09.917Z,0.00
2018-11-03T02:36:09.861Z,0.00
2018-11-03T02:38:02.670Z,0.00
2018-11-03T02:39:02.625Z,0.00
2018-11-03T02:40:55.904Z,0.00
2018-11-03T02:41:55.866Z,0.00
2018-11-03T02:43:49.156Z,0.00
2018-11-03T02:44:49.115Z,0.00
2018-11-03T02:46:41.922Z,0.00
2018-11-03T02:47:41.856Z,0.00
2018-11-03T02:49:35.151Z,0.00
2018-11-03T02:50:35.138Z,0.00
2018-11-03T02:52:27.916Z,0.00
2018-11-03T02:53:27.853Z,0.00
2018-11-03T02:55:20.653Z,0.00
2018-11-03T02:56:20.621Z,0.00
2018-11-03T02:58:13.417Z,0.00
2018-11-03T02:59:13.377Z,0.00
2018-11-03T03:01:06.154Z,0.00
2018-11-03T03:02:06.107Z,0.00
2018-11-03T03:03:58.912Z,0.00
2018-11-03T03:04:58.889Z,0.00
2018-11-03T03:06:51.677Z,0.00
2018-11-03T03:07:51.605Z,0.00
2018-11-03T03:09:44.907Z,0.00
2018-11-03T03:10:44.857Z,0.00
2018-11-03T03:12:38.177Z,0.00
2018-11-03T03:13:38.103Z,0.00
2018-11-03T03:15:31.414Z,0.00
2018-11-03T03:16:31.417Z,0.00
2018-11-03T03:18:24.666Z,0.00
2018-11-03T03:19:24.627Z,0.00
2018-11-03T03:21:17.911Z,0.00
2018-11-03T03:22:17.853Z,0.00
2018-11-03T03:24:11.174Z,0.00
2018-11-03T03:25:11.127Z,0.00
2018-11-03T03:27:04.431Z,0.00
2018-11-03T03:28:04.397Z,0.00
2018-11-03T03:29:57.208Z,0.00
2018-11-03T03:30:57.148Z,0.00
2018-11-03T03:32:50.434Z,0.00
2018-11-03T03:33:50.388Z,0.00
2018-11-03T03:35:43.698Z,0.00
2018-11-03T03:36:43.634Z,0.00
2018-11-03T03:38:36.954Z,0.00
2018-11-03T03:39:36.893Z,0.00
2018-11-03T03:41:30.184Z,0.00
2018-11-03T03:42:30.179Z,0.00
2018-11-03T03:44:23.438Z,0.00
2018-11-03T03:45:23.374Z,0.00
2018-11-03T03:47:16.195Z,0.00
2018-11-03T03:48:16.133Z,0.00
2018-11-03T03:50:09.492Z,0.00
2018-11-03T03:51:09.385Z,0.00
2018-11-03T03:53:02.680Z,0.00
2018-11-03T03:54:02.627Z,0.00
2018-11-03T03:55:55.436Z,0.00
2018-11-03T03:56:55.388Z,0.00
2018-11-03T03:58:48.187Z,0.00
2018-11-03T03:59:48.139Z,0.00
2018-11-03T04:01:40.958Z,0.00
2018-11-03T04:02:40.895Z,0.00
2018-11-03T04:04:34.194Z,0.00
2018-11-03T04:05:34.153Z,0.00
2018-11-03T04:07:27.572Z,0.00
2018-11-03T04:08:27.414Z,0.00
2018-11-03T04:10:20.220Z,0.00
2018-11-03T04:11:20.154Z,0.00
2018-11-03T04:13:13.443Z,0.00
2018-11-03T04:14:13.409Z,0.00
2018-11-03T04:16:06.212Z,0.00
2018-11-03T04:17:06.161Z,0.00
2018-11-03T04:18:58.949Z,0.00
2018-11-03T04:19:58.906Z,0.00
2018-11-03T04:21:51.716Z,0.00
2018-11-03T04:22:51.665Z,0.00
2018-11-03T04:24:44.451Z,0.00
2018-11-03T04:25:44.448Z,0.00
2018-11-03T04:27:37.715Z,0.00
2018-11-03T04:28:37.667Z,0.00
2018-11-03T04:30:30.965Z,0.00
2018-11-03T04:31:30.921Z,0.00
2018-11-03T04:33:23.742Z,0.00
2018-11-03T04:34:23.672Z,0.00
2018-11-03T04:36:16.508Z,0.00
2018-11-03T04:37:16.448Z,0.00
2018-11-03T04:39:09.738Z,0.00
2018-11-03T04:40:09.697Z,0.00
2018-11-03T04:42:02.521Z,0.00
2018-11-03T04:43:02.451Z,0.00
2018-11-03T04:44:55.748Z,0.00
2018-11-03T04:45:55.703Z,0.00
2018-11-03T04:47:48.511Z,0.00
2018-11-03T04:48:48.458Z,0.00
2018-11-03T04:50:41.738Z,0.00
2018-11-03T04:51:41.708Z,0.00
2018-11-03T04:53:34.997Z,0.00
2018-11-03T04:54:34.949Z,0.00
2018-11-03T04:56:27.736Z,0.00
2018-11-03T04:57:27.696Z,0.00
2018-11-03T04:59:20.512Z,0.00
2018-11-03T05:00:20.447Z,0.00
2018-11-03T05:02:13.752Z,0.00
2018-11-03T05:03:13.694Z,0.00
2018-11-03T05:05:06.984Z,0.00
2018-11-03T05:06:06.938Z,0.00
2018-11-03T05:08:00.232Z,0.00
2018-11-03T05:09:00.182Z,0.00
2018-11-03T05:10:53.467Z,0.00
2018-11-03T05:11:53.441Z,0.00
2018-11-03T05:13:46.262Z,0.00
2018-11-03T05:14:46.207Z,0.00
2018-11-03T05:16:38.997Z,0.00
2018-11-03T05:17:38.954Z,0.00
2018-11-03T05:19:31.773Z,0.00
2018-11-03T05:20:31.712Z,0.00
2018-11-03T05:22:24.993Z,0.00
2018-11-03T05:23:24.947Z,0.00
2018-11-03T05:25:17.753Z,0.00
2018-11-03T05:26:17.704Z,0.00
2018-11-03T05:28:10.510Z,0.00
2018-11-03T05:29:10.458Z,0.00
2018-11-03T05:31:03.304Z,0.00
2018-11-03T05:32:03.207Z,0.00
2018-11-03T05:33:56.018Z,0.00
2018-11-03T05:34:55.958Z,0.00
2018-11-03T05:36:49.249Z,0.00
2018-11-03T05:37:49.204Z,0.00
2018-11-03T05:39:42.005Z,0.00
2018-11-03T05:40:41.964Z,0.00
2018-11-03T05:42:34.758Z,0.00
2018-11-03T05:43:34.716Z,0.00
2018-11-03T05:45:27.515Z,0.00
2018-11-03T05:46:27.469Z,0.00
2018-11-03T05:48:20.260Z,0.00
2018-11-03T05:49:20.217Z,0.00
2018-11-03T05:51:13.034Z,0.00
2018-11-03T05:52:12.969Z,0.00
2018-11-03T05:54:05.759Z,0.00
2018-11-03T05:55:05.719Z,0.00
2018-11-03T05:56:59.015Z,0.00
2018-11-03T05:57:58.960Z,0.00
2018-11-03T05:59:51.764Z,0.00
2018-11-03T06:00:51.704Z,0.00
2018-11-03T06:02:44.990Z,0.00
2018-11-03T06:03:44.956Z,0.00
2018-11-03T06:05:38.275Z,0.00
2018-11-03T06:06:38.215Z,0.00
2018-11-03T06:08:31.035Z,0.00
2018-11-03T06:09:30.986Z,0.00
2018-11-03T06:11:24.287Z,0.00
2018-11-03T06:12:24.234Z,0.00
2018-11-03T06:14:17.027Z,0.00
2018-11-03T06:15:17.019Z,0.00
2018-11-03T06:17:09.792Z,0.00
2018-11-03T06:18:09.737Z,0.00
2018-11-03T06:20:02.522Z,0.00
2018-11-03T06:21:02.488Z,0.00
2018-11-03T06:22:55.872Z,0.00
2018-11-03T06:23:55.742Z,0.00
2018-11-03T06:25:49.013Z,0.00
2018-11-03T06:26:48.968Z,0.00
2018-11-03T06:28:42.283Z,0.00
2018-11-03T06:29:42.218Z,0.00
2018-11-03T06:31:35.011Z,0.00
2018-11-03T06:32:34.968Z,0.00
2018-11-03T06:34:28.274Z,0.00
2018-11-03T06:35:28.366Z,0.00
2018-11-03T06:37:21.517Z,0.00
2018-11-03T06:38:21.462Z,0.00
2018-11-03T06:40:14.242Z,0.00
2018-11-03T06:41:14.212Z,0.00
2018-11-03T06:43:07.530Z,5.63
2018-11-03T06:44:07.480Z,5.63
2018-11-03T06:46:00.268Z,5.63
2018-11-03T06:47:00.217Z,5.63
2018-11-03T06:48:53.029Z,5.63
2018-11-03T06:49:52.969Z,5.63
2018-11-03T06:51:46.258Z,5.63
2018-11-03T06:52:46.252Z,5.63
2018-11-03T06:54:39.514Z,5.63
2018-11-03T06:55:39.483Z,5.63
2018-11-03T06:57:32.769Z,5.63
2018-11-03T06:58:32.729Z,5.63
2018-11-03T07:00:26.027Z,5.63
2018-11-03T07:01:25.984Z,11.25
2018-11-03T07:03:19.293Z,11.25
2018-11-03T07:04:19.224Z,11.25
2018-11-03T07:06:12.023Z,11.25
2018-11-03T07:07:11.992Z,11.25
2018-11-03T07:09:04.787Z,11.25
2018-11-03T07:10:04.719Z,11.25
2018-11-03T07:11:57.585Z,11.25
2018-11-03T07:12:57.619Z,11.25
2018-11-03T07:14:50.288Z,16.88
2018-11-03T07:15:50.224Z,16.88
2018-11-03T07:17:43.009Z,16.88
2018-11-03T07:18:42.969Z,16.88
2018-11-03T07:20:36.273Z,16.88
2018-11-03T07:21:36.276Z,16.88
2018-11-03T07:23:29.016Z,16.88
2018-11-03T07:24:28.985Z,16.88
2018-11-03T07:26:21.779Z,16.88
2018-11-03T07:27:21.725Z,16.88
2018-11-03T07:29:14.535Z,22.50
2018-11-03T07:30:14.474Z,22.50
2018-11-03T07:32:07.766Z,22.50
2018-11-03T07:33:07.723Z,22.50
2018-11-03T07:35:00.538Z,22.50
2018-11-03T07:36:00.483Z,22.50
2018-11-03T07:37:53.265Z,22.50
2018-11-03T07:38:53.227Z,22.50
2018-11-03T07:40:46.089Z,22.50
2018-11-03T07:41:45.981Z,22.50
2018-11-03T07:43:38.768Z,22.50
2018-11-03T07:44:38.767Z,22.50
2018-11-03T07:46:31.534Z,28.13
2018-11-03T07:47:31.474Z,22.50
2018-11-03T07:49:24.354Z,28.13
2018-11-03T07:50:24.236Z,28.13
2018-11-03T07:52:17.025Z,28.13
2018-11-03T07:53:16.981Z,28.13
2018-11-03T07:55:09.826Z,28.13
2018-11-03T07:56:09.730Z,28.13
2018-11-03T07:58:02.526Z,28.13
2018-11-03T07:59:02.480Z,28.13
2018-11-03T08:00:55.290Z,28.13
2018-11-03T08:01:55.231Z,28.13
2018-11-03T08:03:48.035Z,33.75
2018-11-03T08:04:47.986Z,33.75
2018-11-03T08:06:40.790Z,33.75
2018-11-03T08:07:40.734Z,33.75
2018-11-03T08:09:33.526Z,33.75
2018-11-03T08:10:33.480Z,33.75
2018-11-03T08:12:26.789Z,33.75
2018-11-03T08:13:26.736Z,33.75
2018-11-03T08:15:20.045Z,33.75
2018-11-03T08:16:19.997Z,33.75
2018-11-03T08:18:12.801Z,33.75
2018-11-03T08:19:12.742Z,33.75
2018-11-03T08:21:05.551Z,33.75
2018-11-03T08:22:05.509Z,28.13
2018-11-03T08:23:58.522Z,33.75
2018-11-03T08:24:58.270Z,33.75
2018-11-03T08:26:51.053Z,33.75
2018-11-03T08:27:51.003Z,33.75
2018-11-03T08:29:43.795Z,33.75
2018-11-03T08:30:43.760Z,33.75
2018-11-03T08:32:36.567Z,33.75
2018-11-03T08:33:36.502Z,33.75
2018-11-03T08:35:29.792Z,33.75
2018-11-03T08:36:29.752Z,33.75
2018-11-03T08:38:22.563Z,33.75
2018-11-03T08:39:22.548Z,33.75
2018-11-03T08:41:15.303Z,39.38
2018-11-03T08:42:15.253Z,39.38
2018-11-03T08:44:08.082Z,39.38
2018-11-03T08:45:08.019Z,39.38
2018-11-03T08:47:00.818Z,39.38
2018-11-03T08:48:00.796Z,39.38
2018-11-03T08:49:53.604Z,39.38
2018-11-03T08:50:53.526Z,45.00
2018-11-03T08:52:46.827Z,45.00
2018-11-03T08:53:46.787Z,45.00
2018-11-03T08:55:39.583Z,45.00
2018-11-03T08:56:39.534Z,45.00
2018-11-03T08:58:32.365Z,45.00
2018-11-03T08:59:32.341Z,45.00
2018-11-03T09:01:25.090Z,45.00
2018-11-03T09:02:25.057Z,50.63
2018-11-03T09:04:18.377Z,50.63
2018-11-03T09:05:18.327Z,50.63
2018-11-03T09:07:11.294Z,50.63
2018-11-03T09:08:11.090Z,50.63
2018-11-03T09:10:04.380Z,50.63
2018-11-03T09:11:04.349Z,56.25
2018-11-03T09:12:57.139Z,56.25
2018-11-03T09:13:57.105Z,56.25
2018-11-03T09:15:49.952Z,61.88
2018-11-03T09:16:49.903Z,61.88
2018-11-03T09:18:42.698Z,67.50
2018-11-03T09:19:42.655Z,67.50
2018-11-03T09:21:35.522Z,73.13
2018-11-03T09:22:35.488Z,84.38
2018-11-03T09:24:28.223Z,101.25
2018-11-03T09:25:28.178Z,112.50
2018-11-03T09:27:20.968Z,95.63
2018-11-03T09:28:20.936Z,112.50
2018-11-03T09:30:14.250Z,129.38
2018-11-03T09:31:14.194Z,230.63
2018-11-03T09:33:06.990Z,185.63
2018-11-03T09:34:06.960Z,315.00
2018-11-03T09:35:59.777Z,365.63
2018-11-03T09:36:59.719Z,315.00
2018-11-03T09:38:53.045Z,168.75
2018-11-03T09:39:52.982Z,236.25
2018-11-03T09:41:46.294Z,270.00
2018-11-03T09:42:46.278Z,331.88
2018-11-03T09:44:39.534Z,320.63
2018-11-03T09:45:39.500Z,236.25
2018-11-03T09:47:32.358Z,191.25
2018-11-03T09:48:32.276Z,225.00
2018-11-03T09:50:25.648Z,247.50
2018-11-03T09:51:25.554Z,225.00
2018-11-03T09:53:18.841Z,270.00
2018-11-03T09:54:18.810Z,241.88
2018-11-03T09:56:12.121Z,309.38
2018-11-03T09:57:12.070Z,286.88
2018-11-03T09:59:05.371Z,281.25
2018-11-03T10:00:05.350Z,225.00
2018-11-03T10:01:58.661Z,219.38
2018-11-03T10:02:58.610Z,208.13
2018-11-03T10:04:51.922Z,196.88
2018-11-03T10:05:51.890Z,253.13
2018-11-03T10:07:45.217Z,331.88
2018-11-03T10:08:45.173Z,320.63
2018-11-03T10:10:38.462Z,376.88
2018-11-03T10:11:38.437Z,382.50
2018-11-03T10:13:31.782Z,343.13
2018-11-03T10:14:31.731Z,438.75
2018-11-03T10:16:24.525Z,450.00
2018-11-03T10:17:24.505Z,461.25
2018-11-03T10:19:17.827Z,354.38
2018-11-03T10:20:17.772Z,185.63
2018-11-03T10:22:11.205Z,292.50
2018-11-03T10:23:11.054Z,393.75
2018-11-03T10:25:03.872Z,388.13
2018-11-03T10:26:03.841Z,393.75
2018-11-03T10:27:56.677Z,399.38
2018-11-03T10:28:56.619Z,388.13
2018-11-03T10:30:49.444Z,320.63
2018-11-03T10:31:49.408Z,309.38
2018-11-03T10:33:42.318Z,275.63
2018-11-03T10:34:42.201Z,309.38
2018-11-03T10:36:35.017Z,270.00
2018-11-03T10:37:34.979Z,281.25
2018-11-03T10:39:27.827Z,191.25
2018-11-03T10:40:27.759Z,247.50
2018-11-03T10:42:20.583Z,303.75
2018-11-03T10:43:20.559Z,292.50
2018-11-03T10:45:13.383Z,202.50
2018-11-03T10:46:13.472Z,146.25
2018-11-03T10:48:06.177Z,174.38
2018-11-03T10:49:06.119Z,196.88
2018-11-03T10:50:58.959Z,208.13
2018-11-03T10:51:58.911Z,191.25
2018-11-03T10:53:51.733Z,196.88
2018-11-03T10:54:51.693Z,191.25
2018-11-03T10:56:44.517Z,163.13
2018-11-03T10:57:44.478Z,157.50
2018-11-03T10:59:37.307Z,157.50
2018-11-03T11:00:37.264Z,146.25
2018-11-03T11:02:30.082Z,140.63
2018-11-03T11:03:30.071Z,129.38
2018-11-03T11:05:22.874Z,163.13
2018-11-03T11:06:22.829Z,146.25
2018-11-03T11:08:15.649Z,163.13
2018-11-03T11:09:15.607Z,151.88
2018-11-03T11:11:08.453Z,163.13
2018-11-03T11:12:08.394Z,202.50
2018-11-03T11:14:01.263Z,157.50
2018-11-03T11:15:01.173Z,185.63
2018-11-03T11:16:54.113Z,213.75
2018-11-03T11:17:53.952Z,213.75
2018-11-03T11:19:46.816Z,180.00
2018-11-03T11:20:46.728Z,174.38
2018-11-03T11:22:39.553Z,196.88
2018-11-03T11:23:39.594Z,168.75
2018-11-03T11:25:32.473Z,135.00
2018-11-03T11:26:32.294Z,168.75
2018-11-03T11:28:25.110Z,185.63
2018-11-03T11:29:25.070Z,180.00
2018-11-03T11:31:17.948Z,241.88
2018-11-03T11:32:17.855Z,225.00
2018-11-03T11:34:10.675Z,202.50
2018-11-03T11:35:10.630Z,202.50
2018-11-03T11:37:03.475Z,219.38
2018-11-03T11:38:03.420Z,219.38
2018-11-03T11:39:56.219Z,202.50
2018-11-03T11:40:56.190Z,191.25
2018-11-03T11:42:49.112Z,185.63
2018-11-03T11:43:49.065Z,208.13
2018-11-03T11:45:41.878Z,213.75
2018-11-03T11:46:41.835Z,219.38
2018-11-03T11:48:34.672Z,225.00
2018-11-03T11:49:34.619Z,230.63
2018-11-03T11:51:27.462Z,202.50
2018-11-03T11:52:27.401Z,208.13
2018-11-03T11:54:20.245Z,174.38
2018-11-03T11:55:20.205Z,174.38
2018-11-03T11:57:13.016Z,135.00
2018-11-03T11:58:12.972Z,123.75
2018-11-03T12:00:05.775Z,129.38
2018-11-03T12:01:05.736Z,129.38
2018-11-03T12:02:58.563Z,112.50
2018-11-03T12:03:58.517Z,106.88
2018-11-03T12:05:51.340Z,106.88
2018-11-03T12:06:51.305Z,101.25
2018-11-03T12:08:44.127Z,95.63
2018-11-03T12:09:44.088Z,101.25
2018-11-03T12:11:36.929Z,106.88
2018-11-03T12:12:36.890Z,101.25
2018-11-03T12:14:29.718Z,101.25
2018-11-03T12:15:29.666Z,101.25
2018-11-03T12:17:22.497Z,95.63
2018-11-03T12:18:22.448Z,90.00
2018-11-03T12:20:15.278Z,90.00
2018-11-03T12:21:15.225Z,90.00
2018-11-03T12:23:08.090Z,90.00
2018-11-03T12:24:08.013Z,90.00
2018-11-03T12:26:00.832Z,90.00
2018-11-03T12:27:00.789Z,90.00
2018-11-03T12:28:53.603Z,84.38
2018-11-03T12:29:53.556Z,90.00
2018-11-03T12:31:46.359Z,90.00
2018-11-03T12:32:46.319Z,95.63
2018-11-03T12:34:39.149Z,84.38
2018-11-03T12:35:39.114Z,84.38
2018-11-03T12:37:31.926Z,78.75
2018-11-03T12:38:31.873Z,90.00
2018-11-03T12:40:24.691Z,78.75
2018-11-03T12:41:24.715Z,73.13
2018-11-03T12:43:17.446Z,67.50
2018-11-03T12:44:17.417Z,67.50
2018-11-03T12:46:10.260Z,67.50
2018-11-03T12:47:10.197Z,67.50
2018-11-03T12:49:03.024Z,67.50
2018-11-03T12:50:02.989Z,67.50
2018-11-03T12:51:55.776Z,67.50
2018-11-03T12:52:55.736Z,67.50
2018-11-03T12:54:48.585Z,67.50
2018-11-03T12:55:48.520Z,67.50
2018-11-03T12:57:41.308Z,78.75
2018-11-03T12:58:41.270Z,73.13
2018-11-03T13:00:34.106Z,67.50
2018-11-03T13:01:34.055Z,67.50
2018-11-03T13:03:26.860Z,61.88
2018-11-03T13:04:26.849Z,61.88
2018-11-03T13:06:19.660Z,56.25
2018-11-03T13:07:19.595Z,56.25
2018-11-03T13:09:12.428Z,50.63
2018-11-03T13:10:12.363Z,56.25
2018-11-03T13:12:05.244Z,56.25
2018-11-03T13:13:05.131Z,56.25
2018-11-03T13:14:57.938Z,50.63
2018-11-03T13:15:57.906Z,50.63
2018-11-03T13:17:50.728Z,45.00
2018-11-03T13:18:50.678Z,45.00
2018-11-03T13:20:43.508Z,45.00
2018-11-03T13:21:43.441Z,45.00
2018-11-03T13:23:36.271Z,50.63
2018-11-03T13:24:36.216Z,61.88
2018-11-03T13:26:29.051Z,50.63
2018-11-03T13:27:29.003Z,45.00
2018-11-03T13:29:21.815Z,45.00
2018-11-03T13:30:21.784Z,45.00
2018-11-03T13:32:14.599Z,45.00
2018-11-03T13:33:14.545Z,45.00
2018-11-03T13:35:07.453Z,45.00
2018-11-03T13:36:07.319Z,45.00
2018-11-03T13:38:00.132Z,45.00
2018-11-03T13:39:00.082Z,45.00
2018-11-03T13:40:52.903Z,45.00
2018-11-03T13:41:52.865Z,45.00
2018-11-03T13:43:45.680Z,39.38
2018-11-03T13:44:45.625Z,39.38
2018-11-03T13:46:38.476Z,39.38
2018-11-03T13:47:38.482Z,39.38
2018-11-03T13:49:31.210Z,39.38
2018-11-03T13:50:31.171Z,39.38
2018-11-03T13:52:23.998Z,39.38
2018-11-03T13:53:23.934Z,39.38
2018-11-03T13:55:16.750Z,45.00
2018-11-03T13:56:16.717Z,39.38
2018-11-03T13:58:09.550Z,45.00
2018-11-03T13:59:09.482Z,56.25
2018-11-03T14:01:02.313Z,90.00
2018-11-03T14:02:02.257Z,78.75
2018-11-03T14:03:55.076Z,39.38
2018-11-03T14:04:55.034Z,39.38
2018-11-03T14:06:47.845Z,45.00
2018-11-03T14:07:47.797Z,67.50
2018-11-03T14:09:40.643Z,78.75
2018-11-03T14:10:40.572Z,95.63
2018-11-03T14:12:33.379Z,140.63
2018-11-03T14:13:33.354Z,140.63
2018-11-03T14:15:26.179Z,140.63
2018-11-03T14:16:26.136Z,135.00
2018-11-03T14:18:18.957Z,118.13
2018-11-03T14:19:18.893Z,95.63
2018-11-03T14:21:11.702Z,33.75
2018-11-03T14:22:11.673Z,28.13
2018-11-03T14:24:04.489Z,22.50
2018-11-03T14:25:04.430Z,22.50
2018-11-03T14:26:57.243Z,22.50
2018-11-03T14:27:57.271Z,22.50
2018-11-03T14:29:50.041Z,22.50
2018-11-03T14:30:49.991Z,22.50
2018-11-03T14:32:42.812Z,22.50
2018-11-03T14:33:42.767Z,22.50
2018-11-03T14:35:35.579Z,16.88
2018-11-03T14:36:35.532Z,16.88
2018-11-03T14:38:28.350Z,16.88
2018-11-03T14:39:28.307Z,16.88
2018-11-03T14:41:21.114Z,16.88
2018-11-03T14:42:21.078Z,16.88
2018-11-03T14:44:13.897Z,16.88
2018-11-03T14:45:13.922Z,16.88
2018-11-03T14:47:06.653Z,16.88
2018-11-03T14:48:06.612Z,16.88
2018-11-03T14:49:59.428Z,16.88
2018-11-03T14:50:59.441Z,11.25
2018-11-03T14:52:52.205Z,11.25
2018-11-03T14:53:52.153Z,11.25
2018-11-03T14:55:44.978Z,11.25
2018-11-03T14:56:44.959Z,11.25
2018-11-03T14:58:37.749Z,11.25
2018-11-03T14:59:37.716Z,11.25
2018-11-03T15:01:30.527Z,11.25
2018-11-03T15:02:30.469Z,11.25
2018-11-03T15:04:23.275Z,11.25
2018-11-03T15:05:23.234Z,11.25
2018-11-03T15:07:16.051Z,11.25
2018-11-03T15:08:16.052Z,11.25
2018-11-03T15:10:08.822Z,11.25
2018-11-03T15:11:08.778Z,11.25
2018-11-03T15:13:01.583Z,11.25
2018-11-03T15:14:01.801Z,11.25
2018-11-03T15:15:54.364Z,5.63
2018-11-03T15:16:54.307Z,5.63
2018-11-03T15:18:47.108Z,5.63
2018-11-03T15:19:47.080Z,5.63
2018-11-03T15:21:39.910Z,5.63
2018-11-03T15:22:39.833Z,5.63
2018-11-03T15:24:32.634Z,5.63
2018-11-03T15:25:32.599Z,5.63
2018-11-03T15:27:25.431Z,5.63
2018-11-03T15:28:25.377Z,5.63
2018-11-03T15:30:18.171Z,5.63
2018-11-03T15:31:18.137Z,5.63
2018-11-03T15:33:10.955Z,5.63
2018-11-03T15:34:10.910Z,5.63
2018-11-03T15:36:03.730Z,5.63
2018-11-03T15:37:03.653Z,5.63
2018-11-03T15:38:56.460Z,5.63
2018-11-03T15:39:56.422Z,5.63
2018-11-03T15:41:49.245Z,0.00
2018-11-03T15:42:49.213Z,0.00
2018-11-03T15:44:41.992Z,0.00
2018-11-03T15:45:41.965Z,0.00
2018-11-03T15:47:34.837Z,0.00
2018-11-03T15:48:34.719Z,0.00
2018-11-03T15:50:27.530Z,0.00
2018-11-03T15:51:27.484Z,0.00
2018-11-03T15:53:20.300Z,0.00
2018-11-03T15:54:20.245Z,0.00
2018-11-03T15:56:13.048Z,0.00
2018-11-03T15:57:13.016Z,0.00
2018-11-03T15:59:05.830Z,0.00
2018-11-03T16:00:05.782Z,0.00
2018-11-03T16:01:58.593Z,0.00
2018-11-03T16:02:58.547Z,0.00
2018-11-03T16:04:51.363Z,0.00
2018-11-03T16:05:51.312Z,0.00
2018-11-03T16:07:44.116Z,0.00
2018-11-03T16:08:44.068Z,0.00
2018-11-03T16:10:36.888Z,0.00
2018-11-03T16:11:36.823Z,0.00
2018-11-03T16:13:29.629Z,0.00
2018-11-03T16:14:29.601Z,0.00
2018-11-03T16:16:22.427Z,0.00
2018-11-03T16:17:22.371Z,0.00
2018-11-03T16:19:15.188Z,0.00
2018-11-03T16:20:15.132Z,0.00
2018-11-03T16:22:07.961Z,0.00
2018-11-03T16:23:07.893Z,0.00
2018-11-03T16:25:00.719Z,0.00
2018-11-03T16:26:00.837Z,0.00
2018-11-03T16:27:53.468Z,0.00
2018-11-03T16:28:53.414Z,0.00
2018-11-03T16:30:46.238Z,0.00
2018-11-03T16:31:46.179Z,0.00
2018-11-03T16:33:38.977Z,0.00
2018-11-03T16:34:38.929Z,0.00
2018-11-03T16:36:31.773Z,0.00
2018-11-03T16:37:31.710Z,0.00
2018-11-03T16:39:24.514Z,0.00
2018-11-03T16:40:24.464Z,0.00
2018-11-03T16:42:17.283Z,0.00
2018-11-03T16:43:17.224Z,0.00
2018-11-03T16:45:10.050Z,0.00
2018-11-03T16:46:09.984Z,0.00
2018-11-03T16:48:02.785Z,0.00
2018-11-03T16:49:02.764Z,0.00
2018-11-03T16:50:55.584Z,0.00
2018-11-03T16:51:55.518Z,0.00
2018-11-03T16:53:48.313Z,0.00
2018-11-03T16:54:48.265Z,0.00
2018-11-03T16:56:41.094Z,0.00
2018-11-03T16:57:41.038Z,0.00
2018-11-03T16:59:33.839Z,0.00
2018-11-03T17:00:33.788Z,0.00
2018-11-03T17:02:26.619Z,0.00
2018-11-03T17:03:26.554Z,0.00
2018-11-03T17:05:19.363Z,0.00
2018-11-03T17:06:19.316Z,0.00
2018-11-03T17:08:12.138Z,0.00
2018-11-03T17:09:12.073Z,0.00
2018-11-03T17:11:04.896Z,0.00
2018-11-03T17:12:04.836Z,0.00
2018-11-03T17:13:57.636Z,0.00
2018-11-03T17:14:57.595Z,0.00
2018-11-03T17:16:50.399Z,0.00
2018-11-03T17:17:50.355Z,0.00
2018-11-03T17:19:43.158Z,0.00
2018-11-03T17:20:43.109Z,0.00
2018-11-03T17:22:35.944Z,0.00
2018-11-03T17:23:35.874Z,0.00
2018-11-03T17:25:28.674Z,0.00
2018-11-03T17:26:28.649Z,0.00
2018-11-03T17:28:21.465Z,0.00
2018-11-03T17:29:21.408Z,0.00
2018-11-03T17:31:14.253Z,0.00
2018-11-03T17:32:14.170Z,0.00
2018-11-03T17:34:06.989Z,0.00
2018-11-03T17:35:06.954Z,0.00
2018-11-03T17:36:59.748Z,0.00
2018-11-03T17:37:59.681Z,0.00
2018-11-03T17:39:52.473Z,0.00
2018-11-03T17:40:52.449Z,0.00
2018-11-03T17:42:45.270Z,0.00
2018-11-03T17:43:45.200Z,0.00
2018-11-03T17:45:38.011Z,0.00
2018-11-03T17:46:37.946Z,0.00
2018-11-03T17:48:30.779Z,0.00
2018-11-03T17:49:30.710Z,0.00
2018-11-03T17:51:23.510Z,0.00
2018-11-03T17:52:23.472Z,0.00
2018-11-03T17:54:16.286Z,0.00
2018-11-03T17:55:16.274Z,0.00
2018-11-03T17:57:09.050Z,0.00
2018-11-03T17:58:09.003Z,0.00
2018-11-03T18:00:01.907Z,0.00
2018-11-03T18:01:01.893Z,0.00
2018-11-03T18:02:54.584Z,0.00
2018-11-03T18:03:54.517Z,0.00
2018-11-03T18:05:47.337Z,0.00
2018-11-03T18:06:47.270Z,0.00
2018-11-03T18:08:40.932Z,0.00
2018-11-03T18:09:40.876Z,0.00
2018-11-03T18:11:33.686Z,0.00
2018-11-03T18:12:33.642Z,0.00
2018-11-03T18:14:26.458Z,0.00
2018-11-03T18:15:26.400Z,0.00
2018-11-03T18:17:19.201Z,0.00
2018-11-03T18:18:19.152Z,0.00
2018-11-03T18:20:11.982Z,0.00
2018-11-03T18:21:11.918Z,0.00
2018-11-03T18:23:05.251Z,0.00
2018-11-03T18:24:04.679Z,0.00
2018-11-03T18:25:57.518Z,0.00
2018-11-03T18:26:57.437Z,0.00
2018-11-03T18:28:50.232Z,0.00
2018-11-03T18:29:50.184Z,0.00
2018-11-03T18:31:42.981Z,0.00
2018-11-03T18:32:42.948Z,0.00
2018-11-03T18:34:35.818Z,0.00
2018-11-03T18:35:35.704Z,0.00
2018-11-03T18:37:28.508Z,0.00
2018-11-03T18:38:28.464Z,0.00
2018-11-03T18:40:21.284Z,0.00
2018-11-03T18:41:21.267Z,0.00
2018-11-03T18:43:14.024Z,0.00
2018-11-03T18:44:13.974Z,0.00
2018-11-03T18:46:06.792Z,0.00
2018-11-03T18:47:06.738Z,0.00